Scott City, Missouri
Current Conditions -  °F | °C
As of 11:53 PM on Saturday 22 Nov 2014 (Local Time) from KCGI Reporting Station
Clear Clear  
Wind Chill: 46°   Ceiling: Unl
Heat Index: 49°   Visibility: 10mi
Dew Point: 40°   Wind: 7mph
Humidity: 71%   Direction: 130°SE
Pressure: 29.93"   Gusts: NA
Location:  37.22°N, 89.52°W
Report Text: KCGI 230553Z AUTO 13006KT 10SM CLR 09/04 A2993 RMK AO2 SLP136 60000 T00940044 10150 20094 401780067 56022 TSNO
Loading
Personal Weather Stations






























Interactive Weather Map New forecast layout! Learn more

10-Day Weather Forecast

Advertisements
Track Severe Weather on mobile